createdAt,value
2023-01-07T00:02:25.186Z,-6.95
2023-01-07T00:07:30.168Z,-6.81
2023-01-07T00:12:34.143Z,-6.63
2023-01-07T00:17:38.722Z,-6.52
2023-01-07T00:22:43.359Z,-6.39
2023-01-07T00:27:49.042Z,-6.30
2023-01-07T00:33:05.759Z,-6.18
2023-01-07T00:38:10.773Z,-6.08
2023-01-07T00:43:16.353Z,-5.84
2023-01-07T00:48:21.397Z,-5.64
2023-01-07T00:53:26.411Z,-5.42
2023-01-07T00:58:32.492Z,-5.25
2023-01-07T01:03:37.201Z,-5.08
2023-01-07T01:08:47.541Z,-4.89
2023-01-07T01:13:53.693Z,-4.73
2023-01-07T01:18:58.383Z,-4.60
2023-01-07T01:24:04.512Z,-4.39
2023-01-07T01:29:09.976Z,-4.26
2023-01-07T01:34:16.132Z,-4.08
2023-01-07T01:39:21.711Z,-3.91
2023-01-07T01:44:48.490Z,-3.72
2023-01-07T01:50:25.362Z,-3.49
2023-01-07T01:55:36.178Z,-3.24
2023-01-07T02:00:43.715Z,-3.05
2023-01-07T02:05:50.564Z,-2.84
2023-01-07T02:11:22.589Z,-2.53
2023-01-07T02:16:44.357Z,-2.25
2023-01-07T02:22:01.029Z,-2.01
2023-01-07T02:27:28.698Z,-1.84
2023-01-07T02:32:38.570Z,-1.68
2023-01-07T02:38:18.589Z,-1.54
2023-01-07T02:43:36.781Z,-1.39
2023-01-07T02:48:43.857Z,-1.22
2023-01-07T02:53:52.125Z,-1.07
2023-01-07T02:59:17.985Z,-0.87
2023-01-07T03:04:35.120Z,-0.74
2023-01-07T03:10:01.193Z,-0.61
2023-01-07T03:15:05.474Z,-0.42
2023-01-07T03:20:11.463Z,-0.23
2023-01-07T03:25:18.136Z,-0.11
2023-01-07T03:30:26.053Z,0.01
2023-01-07T03:35:34.679Z,0.15
2023-01-07T03:40:39.894Z,0.32
2023-01-07T03:45:47.424Z,0.54
2023-01-07T03:50:52.258Z,0.77
2023-01-07T03:55:58.142Z,0.94
2023-01-07T04:01:03.025Z,1.19
2023-01-07T04:06:07.719Z,1.34
2023-01-07T04:11:12.887Z,1.40
2023-01-07T04:16:18.932Z,1.52
2023-01-07T04:21:23.944Z,1.54
2023-01-07T04:26:30.515Z,1.54
2023-01-07T04:31:36.162Z,1.57
2023-01-07T04:36:41.536Z,1.59
2023-01-07T04:41:47.360Z,1.67
2023-01-07T04:46:53.286Z,1.80
2023-01-07T04:51:58.265Z,1.96
2023-01-07T04:57:03.545Z,2.07
2023-01-07T05:02:08.611Z,2.12
2023-01-07T05:07:14.637Z,2.19
2023-01-07T05:12:19.482Z,2.24
2023-01-07T05:17:25.312Z,2.24
2023-01-07T05:22:30.792Z,2.31
2023-01-07T05:27:35.687Z,2.40
2023-01-07T05:32:42.224Z,2.46
2023-01-07T05:37:48.181Z,2.52
2023-01-07T05:42:53.177Z,2.58
2023-01-07T05:47:58.158Z,2.70
2023-01-07T05:53:03.027Z,2.87
2023-01-07T05:58:09.148Z,3.01
2023-01-07T06:03:13.939Z,3.30
2023-01-07T06:08:19.393Z,3.58
2023-01-07T06:13:24.765Z,3.85
2023-01-07T06:18:30.458Z,3.89
2023-01-07T06:23:35.427Z,4.00
2023-01-07T06:28:40.252Z,4.07
2023-01-07T06:33:47.863Z,4.26
2023-01-07T06:38:52.612Z,4.48
2023-01-07T06:43:57.432Z,4.63
2023-01-07T06:49:02.954Z,4.75
2023-01-07T06:54:08.644Z,4.77
2023-01-07T06:59:14.096Z,4.79
2023-01-07T07:04:18.943Z,4.85
2023-01-07T07:09:27.798Z,4.89
2023-01-07T07:14:35.792Z,4.93
2023-01-07T07:19:44.453Z,4.95
2023-01-07T07:24:49.811Z,4.88
2023-01-07T07:29:54.709Z,4.71
2023-01-07T07:34:59.576Z,4.50
2023-01-07T07:40:05.535Z,4.24
2023-01-07T07:45:11.378Z,4.08
2023-01-07T07:50:16.193Z,3.87
2023-01-07T07:55:26.031Z,3.64
2023-01-07T08:00:31.342Z,3.47
2023-01-07T08:05:37.583Z,3.30
2023-01-07T08:10:42.842Z,3.16
2023-01-07T08:15:48.830Z,3.05
2023-01-07T08:20:58.388Z,2.94
2023-01-07T08:26:05.676Z,2.84
2023-01-07T08:31:11.302Z,2.75
2023-01-07T08:36:23.024Z,2.60
2023-01-07T08:41:28.302Z,2.51
2023-01-07T08:46:33.212Z,2.40
2023-01-07T08:51:38.422Z,2.28
2023-01-07T08:56:43.332Z,2.11
2023-01-07T09:01:48.335Z,2.01
2023-01-07T09:06:53.716Z,1.88
2023-01-07T09:11:58.661Z,1.74
2023-01-07T09:17:03.481Z,1.57
2023-01-07T09:22:08.214Z,1.43
2023-01-07T09:27:13.092Z,1.27
2023-01-07T09:32:18.997Z,1.16
2023-01-07T09:37:24.781Z,1.05
2023-01-07T09:42:43.730Z,0.96
2023-01-07T09:47:53.676Z,0.86
2023-01-07T09:53:04.723Z,0.79
2023-01-07T09:58:18.393Z,0.69
2023-01-07T10:03:27.426Z,0.56
2023-01-07T10:08:50.359Z,0.45
2023-01-07T10:14:13.212Z,0.40
2023-01-07T10:19:25.963Z,0.36
2023-01-07T10:24:40.924Z,0.33
2023-01-07T10:29:54.592Z,0.29
2023-01-07T10:35:01.787Z,0.23
2023-01-07T10:40:09.759Z,0.19
2023-01-07T10:45:31.539Z,0.14
2023-01-07T10:50:51.671Z,0.10
2023-01-07T10:56:15.595Z,0.03
2023-01-07T11:01:32.381Z,-0.03
2023-01-07T11:06:46.871Z,-0.09
2023-01-07T11:11:53.579Z,-0.14
2023-01-07T11:17:10.319Z,-0.20
2023-01-07T11:22:36.753Z,-0.22
2023-01-07T11:27:48.168Z,-0.28
2023-01-07T11:33:02.073Z,-0.32
2023-01-07T11:38:31.138Z,-0.35
2023-01-07T11:43:41.610Z,-0.40
2023-01-07T11:48:54.307Z,-0.41
2023-01-07T11:54:01.681Z,-0.43
2023-01-07T11:59:18.268Z,-0.44
2023-01-07T12:04:28.506Z,-0.51
2023-01-07T12:09:38.614Z,-0.68
2023-01-07T12:14:50.895Z,-0.92
2023-01-07T12:20:31.184Z,-1.24
2023-01-07T12:25:35.984Z,-1.56
2023-01-07T12:30:56.663Z,-1.79
2023-01-07T12:36:18.404Z,-2.03
2023-01-07T12:41:47.188Z,-2.18
2023-01-07T12:47:35.083Z,-2.35
2023-01-07T12:52:49.508Z,-2.48
2023-01-07T12:58:32.316Z,-2.57
2023-01-07T13:04:10.423Z,-2.62
2023-01-07T13:09:48.117Z,-2.69
2023-01-07T13:14:59.028Z,-2.76
2023-01-07T13:20:07.939Z,-2.81
2023-01-07T13:25:24.395Z,-2.84
2023-01-07T13:30:48.487Z,-2.83
2023-01-07T13:36:08.734Z,-2.80
2023-01-07T13:41:27.782Z,-2.76
2023-01-07T13:46:46.638Z,-2.77
2023-01-07T13:51:53.191Z,-2.78
2023-01-07T13:57:04.813Z,-2.81
2023-01-07T14:02:21.167Z,-2.86
2023-01-07T14:07:28.464Z,-2.87
2023-01-07T14:13:01.085Z,-2.77
2023-01-07T14:18:36.627Z,-2.67
2023-01-07T14:24:15.808Z,-2.65
2023-01-07T14:29:34.613Z,-2.64
2023-01-07T14:34:40.645Z,-2.64
2023-01-07T14:39:49.182Z,-2.66
2023-01-07T14:44:55.157Z,-2.79
2023-01-07T14:50:20.570Z,-2.98
2023-01-07T14:56:17.060Z,-3.12
2023-01-07T15:01:55.983Z,-3.24
2023-01-07T15:07:04.002Z,-3.36
2023-01-07T15:12:33.765Z,-3.42
2023-01-07T15:17:41.726Z,-3.48
2023-01-07T15:22:47.970Z,-3.50
2023-01-07T15:27:59.439Z,-3.42
2023-01-07T15:33:41.350Z,-3.31
2023-01-07T15:38:55.369Z,-3.21
2023-01-07T15:44:05.292Z,-3.16
2023-01-07T15:49:19.675Z,-3.15
2023-01-07T15:54:32.414Z,-3.18
2023-01-07T15:59:59.718Z,-3.22
2023-01-07T16:05:09.205Z,-3.34
2023-01-07T16:10:26.550Z,-3.48
2023-01-07T16:15:41.011Z,-3.59
2023-01-07T16:21:07.238Z,-3.76
2023-01-07T16:26:21.890Z,-3.82
2023-01-07T16:31:31.345Z,-3.88
2023-01-07T16:36:44.659Z,-3.79
2023-01-07T16:41:50.979Z,-3.75
2023-01-07T16:47:26.422Z,-3.69
2023-01-07T16:52:35.767Z,-3.70
2023-01-07T16:57:47.305Z,-3.74
2023-01-07T17:03:01.026Z,-3.73
2023-01-07T17:08:21.267Z,-3.84
2023-01-07T17:13:27.402Z,-3.92
2023-01-07T17:18:32.545Z,-3.99
2023-01-07T17:23:44.430Z,-4.04
2023-01-07T17:28:59.278Z,-4.09
2023-01-07T17:34:04.978Z,-4.18
2023-01-07T17:39:12.332Z,-4.19
2023-01-07T17:44:18.285Z,-4.26
2023-01-07T17:49:23.195Z,-4.27
2023-01-07T17:54:28.676Z,-4.28
2023-01-07T17:59:32.860Z,-4.20
2023-01-07T18:04:38.589Z,-4.23
2023-01-07T18:09:44.756Z,-4.23
2023-01-07T18:14:53.591Z,-4.21
2023-01-07T18:20:03.282Z,-4.31
2023-01-07T18:25:09.829Z,-4.33
2023-01-07T18:30:17.733Z,-4.40
2023-01-07T18:35:23.906Z,-4.46
2023-01-07T18:40:29.593Z,-4.55
2023-01-07T18:45:36.631Z,-4.61
2023-01-07T18:50:46.068Z,-4.64
2023-01-07T18:56:01.363Z,-4.76
2023-01-07T19:01:07.620Z,-4.76
2023-01-07T19:06:13.950Z,-4.69
2023-01-07T19:11:20.114Z,-4.67
2023-01-07T19:16:24.940Z,-4.71
2023-01-07T19:21:31.886Z,-4.75
2023-01-07T19:26:37.741Z,-4.65
2023-01-07T19:31:44.249Z,-4.69
2023-01-07T19:36:49.083Z,-4.80
2023-01-07T19:41:53.835Z,-4.91
2023-01-07T19:46:59.227Z,-4.97
2023-01-07T19:52:04.815Z,-5.04
2023-01-07T19:57:10.841Z,-5.19
2023-01-07T20:02:16.477Z,-5.28
2023-01-07T20:07:21.957Z,-5.37
2023-01-07T20:12:26.569Z,-5.40
2023-01-07T20:17:31.369Z,-5.42
2023-01-07T20:22:37.283Z,-5.37
2023-01-07T20:27:43.814Z,-5.29
2023-01-07T20:32:48.654Z,-5.22
2023-01-07T20:37:53.223Z,-5.20
2023-01-07T20:42:57.830Z,-5.24
2023-01-07T20:48:03.913Z,-5.33
2023-01-07T20:53:09.606Z,-5.40
2023-01-07T20:58:15.294Z,-5.52
2023-01-07T21:03:19.938Z,-5.61
2023-01-07T21:08:25.117Z,-5.67
2023-01-07T21:13:30.792Z,-5.69
2023-01-07T21:18:36.952Z,-5.71
2023-01-07T21:23:42.054Z,-5.63
2023-01-07T21:28:47.797Z,-5.57
2023-01-07T21:33:56.642Z,-5.53
2023-01-07T21:39:03.087Z,-5.52
2023-01-07T21:44:09.484Z,-5.54
2023-01-07T21:49:14.137Z,-5.61
2023-01-07T21:54:18.839Z,-5.67
2023-01-07T21:59:23.769Z,-5.79
2023-01-07T22:04:30.332Z,-5.82
2023-01-07T22:09:34.950Z,-5.88
2023-01-07T22:14:40.908Z,-5.90
2023-01-07T22:19:45.553Z,-5.98
2023-01-07T22:24:51.253Z,-5.99
2023-01-07T22:29:56.334Z,-6.05
2023-01-07T22:35:01.930Z,-6.03
2023-01-07T22:40:13.083Z,-6.00
2023-01-07T22:45:32.080Z,-5.91
2023-01-07T22:50:38.258Z,-5.81
2023-01-07T23:01:06.620Z,-5.89
2023-01-07T23:06:14.057Z,-6.01
2023-01-07T23:11:37.551Z,-6.12
2023-01-07T23:16:42.860Z,-6.22
2023-01-07T23:21:50.041Z,-6.27
2023-01-07T23:26:58.161Z,-6.29
2023-01-07T23:32:04.508Z,-6.31
2023-01-07T23:37:09.284Z,-6.31
2023-01-07T23:42:15.998Z,-6.28
2023-01-07T23:47:21.056Z,-6.28
2023-01-07T23:52:27.449Z,-6.19
